createdAt,value
2023-03-01T00:00:33.715Z,18.70
2023-03-01T00:01:33.698Z,18.40
2023-03-01T00:02:33.704Z,18.60
2023-03-01T00:03:33.716Z,19.30
2023-03-01T00:04:33.656Z,19.60
2023-03-01T00:05:33.639Z,19.30
2023-03-01T00:06:33.800Z,19.60
2023-03-01T00:07:33.607Z,19.50
2023-03-01T00:08:33.597Z,19.80
2023-03-01T00:09:33.578Z,19.20
2023-03-01T00:10:33.564Z,18.90
2023-03-01T00:11:33.544Z,19.30
2023-03-01T00:12:33.532Z,18.70
2023-03-01T00:13:33.538Z,19.00
2023-03-01T00:14:33.500Z,19.40
2023-03-01T00:15:33.482Z,19.10
2023-03-01T00:16:33.701Z,18.90
2023-03-01T00:17:33.449Z,18.30
2023-03-01T00:18:33.435Z,18.60
2023-03-01T00:19:33.430Z,19.00
2023-03-01T00:20:33.402Z,18.90
2023-03-01T00:21:33.431Z,19.30
2023-03-01T00:22:33.375Z,18.40
2023-03-01T00:23:33.356Z,18.10
2023-03-01T00:24:33.343Z,18.20
2023-03-01T00:25:33.325Z,17.80
2023-03-01T00:26:33.429Z,18.20
2023-03-01T00:27:33.298Z,18.60
2023-03-01T00:28:33.285Z,17.90
2023-03-01T00:29:33.262Z,17.80
2023-03-01T00:30:33.277Z,17.60
2023-03-01T00:31:33.248Z,17.40
2023-03-01T00:32:33.217Z,17.80
2023-03-01T00:33:33.201Z,17.80
2023-03-01T00:34:33.182Z,18.00
2023-03-01T00:35:33.206Z,19.10
2023-03-01T00:36:33.553Z,18.60
2023-03-01T00:37:33.147Z,18.80
2023-03-01T00:38:33.124Z,18.50
2023-03-01T00:39:33.108Z,19.20
2023-03-01T00:40:33.090Z,19.50
2023-03-01T00:41:33.102Z,18.40
2023-03-01T00:42:33.068Z,18.90
2023-03-01T00:43:33.048Z,18.80
2023-03-01T00:44:33.028Z,18.20
2023-03-01T00:45:33.013Z,18.20
2023-03-01T00:46:33.468Z,17.60
2023-03-01T00:47:32.979Z,17.60
2023-03-01T00:48:32.966Z,17.80
2023-03-01T00:49:32.958Z,17.50
2023-03-01T00:50:32.935Z,17.30
2023-03-01T00:51:32.931Z,16.60
2023-03-01T00:52:32.908Z,16.50
2023-03-01T00:53:32.894Z,16.80
2023-03-01T00:54:32.877Z,17.00
2023-03-01T00:55:32.860Z,16.90
2023-03-01T00:56:33.280Z,17.60
2023-03-01T00:57:32.824Z,17.60
2023-03-01T00:58:32.810Z,17.30
2023-03-01T00:59:32.794Z,17.90
2023-03-01T01:00:32.776Z,17.40
2023-03-01T01:01:32.837Z,18.50
2023-03-01T01:02:32.805Z,18.00
2023-03-01T01:03:32.730Z,17.70
2023-03-01T01:04:32.714Z,17.90
2023-03-01T01:05:32.699Z,18.50
2023-03-01T01:06:33.078Z,18.70
2023-03-01T01:07:32.666Z,17.70
2023-03-01T01:08:32.647Z,18.10
2023-03-01T01:09:32.640Z,18.30
2023-03-01T01:10:32.615Z,18.60
2023-03-01T01:11:32.625Z,18.70
2023-03-01T01:12:32.585Z,19.30
2023-03-01T01:13:32.570Z,19.40
2023-03-01T01:14:32.552Z,19.40
2023-03-01T01:15:32.561Z,19.80
2023-03-01T01:16:32.956Z,20.90
2023-03-01T01:17:32.503Z,19.80
2023-03-01T01:18:32.487Z,20.40
2023-03-01T01:19:32.472Z,19.80
2023-03-01T01:20:32.479Z,20.80
2023-03-01T01:21:32.446Z,20.40
2023-03-01T01:22:32.425Z,20.40
2023-03-01T01:23:32.423Z,20.10
2023-03-01T01:24:32.388Z,20.10
2023-03-01T01:25:32.372Z,20.60
2023-03-01T01:26:32.850Z,19.80
2023-03-01T01:27:32.345Z,19.70
2023-03-01T01:28:32.332Z,19.30
2023-03-01T01:29:32.308Z,20.00
2023-03-01T01:30:32.307Z,18.70
2023-03-01T01:31:32.387Z,19.10
2023-03-01T01:32:32.322Z,19.50
2023-03-01T01:33:32.257Z,19.40
2023-03-01T01:34:32.236Z,19.40
2023-03-01T01:35:32.263Z,20.10
2023-03-01T01:36:32.721Z,19.90
2023-03-01T01:37:32.186Z,19.20
2023-03-01T01:38:32.173Z,20.20
2023-03-01T01:39:32.152Z,20.50
2023-03-01T01:40:32.144Z,21.20
2023-03-01T01:41:32.116Z,21.30
2023-03-01T01:42:32.103Z,20.00
2023-03-01T01:43:32.085Z,19.90
2023-03-01T01:44:32.077Z,19.70
2023-03-01T01:45:32.055Z,19.70
2023-03-01T01:46:32.582Z,20.40
2023-03-01T01:47:32.083Z,20.90
2023-03-01T01:48:32.004Z,20.70
2023-03-01T01:49:31.993Z,20.40
2023-03-01T01:50:31.973Z,20.40
2023-03-01T01:51:31.958Z,20.10
2023-03-01T01:52:31.942Z,20.40
2023-03-01T01:53:31.926Z,20.40
2023-03-01T01:54:31.909Z,19.90
2023-03-01T01:55:31.894Z,19.90
2023-03-01T01:56:32.324Z,20.10
2023-03-01T01:57:31.860Z,19.20
2023-03-01T01:58:31.869Z,19.70
2023-03-01T01:59:31.830Z,19.70
2023-03-01T02:00:31.817Z,19.20
2023-03-01T02:01:31.799Z,19.30
2023-03-01T02:02:31.825Z,19.50
2023-03-01T02:03:31.880Z,19.60
2023-03-01T02:04:31.748Z,19.70
2023-03-01T02:05:31.742Z,20.10
2023-03-01T02:06:32.038Z,19.40
2023-03-01T02:07:31.702Z,20.00
2023-03-01T02:08:31.690Z,19.70
2023-03-01T02:09:31.672Z,19.70
2023-03-01T02:10:31.656Z,20.20
2023-03-01T02:11:31.640Z,19.10
2023-03-01T02:12:31.618Z,19.60
2023-03-01T02:13:31.609Z,19.50
2023-03-01T02:14:31.588Z,19.20
2023-03-01T02:15:31.579Z,19.00
2023-03-01T02:16:32.057Z,19.30
2023-03-01T02:17:31.541Z,19.30
2023-03-01T02:18:31.526Z,19.20
2023-03-01T02:19:31.510Z,19.90
2023-03-01T02:20:31.502Z,19.20
2023-03-01T02:21:31.473Z,18.80
2023-03-01T02:22:31.520Z,19.00
2023-03-01T02:23:31.445Z,19.10
2023-03-01T02:24:31.433Z,18.90
2023-03-01T02:25:31.412Z,18.00
2023-03-01T02:26:31.695Z,18.70
2023-03-01T02:27:31.382Z,19.30
2023-03-01T02:28:31.364Z,18.70
2023-03-01T02:29:31.363Z,19.20
2023-03-01T02:30:31.334Z,18.90
2023-03-01T02:31:31.360Z,18.40
2023-03-01T02:32:31.302Z,18.50
2023-03-01T02:33:31.282Z,19.00
2023-03-01T02:34:31.272Z,19.50
2023-03-01T02:35:31.266Z,19.30
2023-03-01T02:36:31.551Z,19.20
2023-03-01T02:37:31.222Z,18.50
2023-03-01T02:38:31.205Z,17.80
2023-03-01T02:39:31.192Z,17.90
2023-03-01T02:40:31.175Z,18.70
2023-03-01T02:41:31.160Z,18.30
2023-03-01T02:42:31.142Z,17.90
2023-03-01T02:43:31.133Z,18.00
2023-03-01T02:44:31.109Z,17.90
2023-03-01T02:45:31.100Z,18.20
2023-03-01T02:46:31.431Z,18.10
2023-03-01T02:47:31.066Z,17.70
2023-03-01T02:48:31.049Z,17.90
2023-03-01T02:49:31.033Z,18.10
2023-03-01T02:50:31.018Z,18.30
2023-03-01T02:51:30.998Z,17.90
2023-03-01T02:52:30.993Z,17.70
2023-03-01T02:53:30.965Z,18.20
2023-03-01T02:54:30.949Z,17.80
2023-03-01T02:55:30.936Z,17.70
2023-03-01T02:56:31.250Z,17.60
2023-03-01T02:57:30.911Z,18.30
2023-03-01T02:58:30.886Z,17.80
2023-03-01T02:59:30.873Z,18.60
2023-03-01T03:00:30.890Z,18.70
2023-03-01T03:01:30.836Z,19.30
2023-03-01T03:02:30.823Z,18.70
2023-03-01T03:03:30.878Z,18.30
2023-03-01T03:04:30.789Z,18.60
2023-03-01T03:05:30.775Z,18.40
2023-03-01T03:06:31.133Z,18.60
2023-03-01T03:07:30.742Z,18.10
2023-03-01T03:08:30.764Z,18.30
2023-03-01T03:09:30.718Z,18.60
2023-03-01T03:10:30.692Z,18.40
2023-03-01T03:11:30.680Z,18.10
2023-03-01T03:12:30.661Z,18.60
2023-03-01T03:13:30.648Z,18.10
2023-03-01T03:14:30.626Z,18.60
2023-03-01T03:15:30.612Z,17.90
2023-03-01T03:16:30.933Z,18.00
2023-03-01T03:17:30.582Z,18.10
2023-03-01T03:18:30.564Z,17.80
2023-03-01T03:19:30.568Z,17.90
2023-03-01T03:20:30.533Z,17.40
2023-03-01T03:21:30.561Z,17.80
2023-03-01T03:22:30.501Z,18.20
2023-03-01T03:23:30.486Z,17.30
2023-03-01T03:24:30.465Z,17.80
2023-03-01T03:25:30.484Z,18.10
2023-03-01T03:26:30.815Z,17.80
2023-03-01T03:27:30.417Z,17.90
2023-03-01T03:28:30.413Z,17.90
2023-03-01T03:29:30.385Z,18.00
2023-03-01T03:30:30.379Z,17.80
2023-03-01T03:31:30.402Z,18.30
2023-03-01T03:32:30.371Z,18.00
2023-03-01T03:33:30.314Z,17.30
2023-03-01T03:34:30.306Z,18.00
2023-03-01T03:35:30.389Z,17.90
2023-03-01T03:36:30.504Z,17.10
2023-03-01T03:37:30.253Z,17.00
2023-03-01T03:38:30.238Z,16.90
2023-03-01T03:39:30.223Z,16.90
2023-03-01T03:40:30.205Z,17.40
2023-03-01T03:41:30.189Z,17.60
2023-03-01T03:42:30.175Z,17.70
2023-03-01T03:43:30.159Z,16.70
2023-03-01T03:44:30.146Z,17.40
2023-03-01T03:45:30.156Z,17.40
2023-03-01T03:46:30.108Z,17.20
2023-03-01T03:47:30.091Z,16.90
2023-03-01T03:48:30.076Z,17.50
2023-03-01T03:49:30.070Z,17.80
2023-03-01T03:50:30.047Z,17.10
2023-03-01T03:51:30.058Z,18.40
2023-03-01T03:52:30.012Z,18.30
2023-03-01T03:53:29.994Z,18.90
2023-03-01T03:54:29.977Z,18.70
2023-03-01T03:55:29.962Z,18.60
2023-03-01T03:56:30.424Z,18.40
2023-03-01T03:57:29.930Z,18.50
2023-03-01T03:58:29.921Z,18.90
2023-03-01T03:59:29.909Z,18.80
2023-03-01T04:00:29.902Z,19.20
2023-03-01T04:01:29.911Z,19.50
2023-03-01T04:02:29.896Z,19.40
2023-03-01T04:03:29.847Z,18.80
2023-03-01T04:04:29.822Z,19.00
2023-03-01T04:05:29.800Z,19.00
2023-03-01T04:06:30.104Z,18.80
2023-03-01T04:07:29.767Z,18.30
2023-03-01T04:08:29.750Z,19.00
2023-03-01T04:09:29.740Z,19.40
2023-03-01T04:10:29.726Z,18.80
2023-03-01T04:11:29.730Z,18.50
2023-03-01T04:12:29.686Z,18.90
2023-03-01T04:13:29.683Z,18.90
2023-03-01T04:14:29.659Z,19.40
2023-03-01T04:15:29.665Z,18.80
2023-03-01T04:16:30.163Z,18.70
2023-03-01T04:17:29.604Z,18.90
2023-03-01T04:18:29.595Z,18.60
2023-03-01T04:19:29.575Z,18.30
2023-03-01T04:20:29.554Z,18.60
2023-03-01T04:21:29.540Z,17.60
2023-03-01T04:22:29.525Z,17.90
2023-03-01T04:23:29.508Z,18.50
2023-03-01T04:24:29.492Z,19.30
2023-03-01T04:25:29.477Z,18.10
2023-03-01T04:26:29.763Z,18.70
2023-03-01T04:27:29.441Z,18.50
2023-03-01T04:28:29.427Z,18.90
2023-03-01T04:29:29.411Z,19.00
2023-03-01T04:30:29.394Z,18.60
2023-03-01T04:31:29.425Z,17.80
2023-03-01T04:32:29.382Z,18.00
2023-03-01T04:33:29.346Z,18.30
2023-03-01T04:34:29.325Z,18.80
2023-03-01T04:35:29.381Z,18.50
2023-03-01T04:36:29.566Z,18.60
2023-03-01T04:37:29.287Z,18.50
2023-03-01T04:38:29.267Z,18.40
2023-03-01T04:39:29.249Z,18.60
2023-03-01T04:40:29.232Z,19.90
2023-03-01T04:41:29.219Z,19.30
2023-03-01T04:42:29.201Z,19.60
2023-03-01T04:43:29.199Z,19.40
2023-03-01T04:44:29.167Z,19.40
2023-03-01T04:45:29.149Z,18.40
2023-03-01T04:46:29.593Z,19.10
2023-03-01T04:47:29.117Z,19.90
2023-03-01T04:48:29.114Z,19.50
2023-03-01T04:49:29.085Z,19.80
2023-03-01T04:50:29.071Z,19.90
2023-03-01T04:51:29.057Z,19.30
2023-03-01T04:52:29.033Z,19.10
2023-03-01T04:53:29.019Z,19.60
2023-03-01T04:54:29.004Z,20.50
2023-03-01T04:55:28.992Z,21.50
2023-03-01T04:56:29.246Z,21.90
2023-03-01T04:57:28.955Z,21.20
2023-03-01T04:58:28.938Z,20.80
2023-03-01T04:59:28.932Z,20.50
2023-03-01T05:00:28.920Z,19.70
2023-03-01T05:01:28.891Z,19.40
2023-03-01T05:02:28.879Z,19.40
2023-03-01T05:03:28.866Z,19.90
2023-03-01T05:04:28.875Z,19.30
2023-03-01T05:05:28.836Z,18.90
2023-03-01T05:06:29.096Z,19.10
2023-03-01T05:07:28.805Z,19.50
2023-03-01T05:08:28.790Z,19.60
2023-03-01T05:09:28.755Z,20.10
2023-03-01T05:10:28.760Z,19.50
2023-03-01T05:11:28.730Z,19.00
2023-03-01T05:12:28.712Z,18.70
2023-03-01T05:13:28.690Z,17.80
2023-03-01T05:14:28.677Z,17.70
2023-03-01T05:15:28.662Z,17.80
2023-03-01T05:16:28.965Z,18.00
2023-03-01T05:17:28.626Z,17.40
2023-03-01T05:18:28.623Z,17.80
2023-03-01T05:19:28.594Z,18.30
2023-03-01T05:20:28.576Z,17.80
2023-03-01T05:21:28.561Z,18.10
2023-03-01T05:22:28.545Z,18.70
2023-03-01T05:23:28.531Z,18.10
2023-03-01T05:24:28.517Z,17.50
2023-03-01T05:25:28.497Z,17.30
2023-03-01T05:26:28.957Z,18.20
2023-03-01T05:27:28.464Z,18.30
2023-03-01T05:28:28.445Z,19.20
2023-03-01T05:29:28.437Z,18.30
2023-03-01T05:30:28.408Z,18.40
2023-03-01T05:31:28.491Z,18.60
2023-03-01T05:32:28.384Z,19.20
2023-03-01T05:33:28.364Z,19.20
2023-03-01T05:34:28.352Z,19.10
2023-03-01T05:35:28.365Z,19.40
2023-03-01T05:36:28.331Z,18.40
2023-03-01T05:37:28.304Z,18.80
2023-03-01T05:38:28.282Z,18.20
2023-03-01T05:39:28.262Z,18.30
2023-03-01T05:40:28.250Z,18.60
2023-03-01T05:41:28.229Z,17.80
2023-03-01T05:42:28.212Z,18.30
2023-03-01T05:43:28.199Z,18.20
2023-03-01T05:44:28.179Z,17.80
2023-03-01T05:45:28.176Z,18.20
2023-03-01T05:46:28.541Z,17.90
2023-03-01T05:47:28.138Z,18.80
2023-03-01T05:48:28.115Z,18.00
2023-03-01T05:49:28.101Z,18.40
2023-03-01T05:50:28.101Z,18.90
2023-03-01T05:51:28.068Z,18.40
2023-03-01T05:52:28.045Z,18.70
2023-03-01T05:53:28.031Z,18.60
2023-03-01T05:54:28.021Z,18.70
2023-03-01T05:55:29.092Z,18.20
2023-03-01T05:56:28.227Z,17.80
2023-03-01T05:57:27.996Z,17.20
2023-03-01T05:58:27.959Z,16.90
2023-03-01T05:59:27.935Z,17.50
2023-03-01T06:00:27.919Z,16.70
2023-03-01T06:01:27.902Z,17.60
2023-03-01T06:02:27.892Z,17.40
2023-03-01T06:03:27.878Z,17.20
2023-03-01T06:04:27.901Z,17.80
2023-03-01T06:05:27.940Z,17.90
2023-03-01T06:06:29.148Z,17.20
2023-03-01T06:07:27.801Z,17.20
2023-03-01T06:08:27.802Z,17.40
2023-03-01T06:09:27.775Z,16.90
2023-03-01T06:10:27.758Z,17.30
2023-03-01T06:11:27.743Z,17.10
2023-03-01T06:12:27.722Z,16.90
2023-03-01T06:13:27.720Z,17.00
2023-03-01T06:14:27.705Z,17.20
2023-03-01T06:15:27.683Z,16.70
2023-03-01T06:16:27.751Z,16.30
2023-03-01T06:17:27.645Z,16.30
2023-03-01T06:18:27.624Z,16.40
2023-03-01T06:19:27.616Z,16.00
2023-03-01T06:20:27.591Z,15.70
2023-03-01T06:21:27.578Z,15.90
2023-03-01T06:22:27.569Z,15.60
2023-03-01T06:23:27.541Z,15.60
2023-03-01T06:24:27.543Z,15.70
2023-03-01T06:25:27.512Z,15.60
2023-03-01T06:26:27.494Z,15.20
2023-03-01T06:27:27.485Z,15.10
2023-03-01T06:28:27.466Z,15.10
2023-03-01T06:29:27.449Z,14.50
2023-03-01T06:30:27.438Z,15.00
2023-03-01T06:31:27.453Z,15.00
2023-03-01T06:32:27.478Z,15.40
2023-03-01T06:33:27.381Z,15.00
2023-03-01T06:34:27.368Z,14.80
2023-03-01T06:35:27.380Z,15.10
2023-03-01T06:36:27.331Z,14.80
2023-03-01T06:37:27.331Z,15.20
2023-03-01T06:38:27.311Z,14.70
2023-03-01T06:39:27.279Z,15.10
2023-03-01T06:40:27.261Z,14.60
2023-03-01T06:41:27.246Z,14.60
2023-03-01T06:42:27.230Z,14.10
2023-03-01T06:43:27.236Z,14.40
2023-03-01T06:44:27.380Z,14.50
2023-03-01T06:45:27.191Z,13.80
2023-03-01T06:46:27.239Z,13.80
2023-03-01T06:47:27.155Z,14.00
2023-03-01T06:48:27.132Z,13.60
2023-03-01T06:49:27.130Z,13.70
2023-03-01T06:50:27.152Z,14.00
2023-03-01T06:51:27.101Z,13.40
2023-03-01T06:52:27.086Z,13.50
2023-03-01T06:53:27.059Z,13.80
2023-03-01T06:54:27.060Z,13.60
2023-03-01T06:55:27.033Z,14.50
2023-03-01T06:56:27.039Z,14.50
2023-03-01T06:57:27.044Z,14.10
2023-03-01T06:58:26.994Z,13.80
2023-03-01T06:59:26.966Z,14.00
2023-03-01T07:00:26.982Z,13.40
2023-03-01T07:01:26.950Z,14.30
2023-03-01T07:02:26.951Z,13.70
2023-03-01T07:03:26.901Z,14.20
2023-03-01T07:04:26.879Z,15.10
2023-03-01T07:05:26.867Z,13.70
2023-03-01T07:06:26.849Z,13.90
2023-03-01T07:07:26.830Z,13.70
2023-03-01T07:08:26.815Z,13.90
2023-03-01T07:09:26.804Z,13.60
2023-03-01T07:10:26.793Z,14.00
2023-03-01T07:11:26.777Z,13.60
2023-03-01T07:12:26.756Z,14.10
2023-03-01T07:13:26.745Z,14.10
2023-03-01T07:14:26.743Z,14.00
2023-03-01T07:15:26.715Z,14.00
2023-03-01T07:16:26.797Z,13.80
2023-03-01T07:17:26.683Z,14.40
2023-03-01T07:18:26.663Z,14.40
2023-03-01T07:19:26.648Z,14.20
2023-03-01T07:20:26.854Z,14.60
2023-03-01T07:21:26.613Z,15.30
2023-03-01T07:22:26.602Z,15.20
2023-03-01T07:23:26.585Z,15.90
2023-03-01T07:24:26.568Z,15.40
2023-03-01T07:25:26.556Z,15.30
2023-03-01T07:26:26.538Z,15.80
2023-03-01T07:27:26.525Z,15.40
2023-03-01T07:28:26.503Z,15.40
2023-03-01T07:29:26.494Z,15.00
2023-03-01T07:30:26.477Z,14.90
2023-03-01T07:31:26.462Z,15.30
2023-03-01T07:32:26.502Z,14.90
2023-03-01T07:33:26.451Z,14.90
2023-03-01T07:34:26.409Z,14.30
2023-03-01T07:35:26.432Z,14.30
2023-03-01T07:36:26.406Z,14.20
2023-03-01T07:37:26.370Z,14.80
2023-03-01T07:38:26.353Z,14.40
2023-03-01T07:39:26.337Z,14.20
2023-03-01T07:40:26.330Z,14.10
2023-03-01T07:41:26.311Z,13.90
2023-03-01T07:42:26.289Z,14.20
2023-03-01T07:43:26.268Z,14.10
2023-03-01T07:44:26.266Z,13.90
2023-03-01T07:45:26.276Z,14.00
2023-03-01T07:46:26.237Z,14.00
2023-03-01T07:47:26.217Z,13.00
2023-03-01T07:48:26.194Z,13.10
2023-03-01T07:49:26.193Z,13.60
2023-03-01T07:50:26.163Z,12.90
2023-03-01T07:51:26.157Z,13.20
2023-03-01T07:52:26.135Z,12.70
2023-03-01T07:53:26.116Z,12.90
2023-03-01T07:54:26.114Z,12.50
2023-03-01T07:55:26.090Z,12.50
2023-03-01T07:56:26.075Z,13.20
2023-03-01T07:57:26.055Z,13.30
2023-03-01T07:58:26.041Z,13.20
2023-03-01T07:59:26.028Z,12.80
2023-03-01T08:00:26.010Z,13.00
2023-03-01T08:01:26.057Z,12.90
2023-03-01T08:02:25.985Z,12.40
2023-03-01T08:03:25.972Z,12.20
2023-03-01T08:04:25.947Z,12.90
2023-03-01T08:05:25.933Z,12.90
2023-03-01T08:06:25.918Z,12.20
2023-03-01T08:07:25.910Z,11.90
2023-03-01T08:08:25.888Z,11.70
2023-03-01T08:09:25.871Z,11.30
2023-03-01T08:10:25.865Z,11.80
2023-03-01T08:11:25.884Z,12.10
2023-03-01T08:12:25.828Z,12.10
2023-03-01T08:13:25.811Z,12.50
2023-03-01T08:14:25.798Z,11.80
2023-03-01T08:15:25.782Z,12.00
2023-03-01T08:16:25.835Z,12.20
2023-03-01T08:17:25.757Z,11.90
2023-03-01T08:18:25.738Z,11.70
2023-03-01T08:19:25.722Z,10.70
2023-03-01T08:20:25.789Z,11.00
2023-03-01T08:21:25.686Z,10.20
2023-03-01T08:22:25.680Z,10.00
2023-03-01T08:23:25.664Z,10.40
2023-03-01T08:24:25.650Z,10.50
2023-03-01T08:25:25.628Z,10.30
2023-03-01T08:26:25.623Z,10.80
2023-03-01T08:27:25.747Z,10.70
2023-03-01T08:28:25.586Z,10.70
2023-03-01T08:29:25.584Z,10.80
2023-03-01T08:30:25.570Z,10.90
2023-03-01T08:31:25.624Z,11.10
2023-03-01T08:32:25.549Z,9.90
2023-03-01T08:33:25.549Z,9.80
2023-03-01T08:34:25.492Z,8.90
2023-03-01T08:35:25.501Z,9.00
2023-03-01T08:36:25.480Z,8.70
2023-03-01T08:37:25.472Z,8.50
2023-03-01T08:38:25.439Z,8.30
2023-03-01T08:39:25.510Z,8.30
2023-03-01T08:40:25.470Z,8.30
2023-03-01T08:41:25.401Z,7.80
2023-03-01T08:42:25.392Z,7.40
2023-03-01T08:43:26.356Z,7.40
2023-03-01T08:44:25.355Z,6.90
2023-03-01T08:45:25.346Z,5.90
2023-03-01T08:46:25.328Z,5.90
2023-03-01T08:47:25.313Z,6.20
2023-03-01T08:48:25.300Z,6.30
2023-03-01T08:49:25.282Z,6.40
2023-03-01T08:50:25.276Z,6.50
2023-03-01T08:51:25.258Z,6.40
2023-03-01T08:52:25.242Z,6.00
2023-03-01T08:53:25.227Z,5.50
2023-03-01T08:54:25.213Z,6.00
2023-03-01T08:55:25.204Z,5.90
2023-03-01T08:56:25.185Z,5.70
2023-03-01T08:57:25.170Z,6.20
2023-03-01T08:58:25.151Z,6.60
2023-03-01T08:59:25.142Z,6.40
2023-03-01T09:00:25.133Z,6.40
2023-03-01T09:01:25.116Z,6.60
2023-03-01T09:02:25.136Z,6.50
2023-03-01T09:03:25.316Z,6.50
2023-03-01T09:04:25.075Z,6.00
2023-03-01T09:05:25.052Z,6.10
2023-03-01T09:06:25.052Z,6.00
2023-03-01T09:07:25.029Z,6.20
2023-03-01T09:08:25.034Z,5.80
2023-03-01T09:09:24.999Z,6.20
2023-03-01T09:10:24.995Z,5.90
2023-03-01T09:11:24.981Z,6.00
2023-03-01T09:12:24.974Z,5.90
2023-03-01T09:13:24.947Z,5.70
2023-03-01T09:14:24.931Z,5.70
2023-03-01T09:15:24.921Z,5.70
2023-03-01T09:16:24.986Z,5.20
2023-03-01T09:17:24.899Z,5.80
2023-03-01T09:18:24.881Z,5.10
2023-03-01T09:19:27.277Z,4.50
2023-03-01T09:20:24.852Z,4.50
2023-03-01T09:21:37.229Z,4.50
2023-03-01T09:22:24.832Z,4.20
2023-03-01T09:23:24.810Z,4.50
2023-03-01T09:24:24.803Z,4.10
2023-03-01T09:25:24.785Z,4.30
2023-03-01T09:26:24.777Z,3.80
2023-03-01T09:27:24.769Z,3.60
2023-03-01T09:28:30.121Z,3.80
2023-03-01T09:29:24.760Z,3.50
2023-03-01T09:30:24.716Z,3.30
2023-03-01T09:31:24.704Z,3.50
2023-03-01T09:32:24.722Z,3.30
2023-03-01T09:33:24.674Z,3.20
2023-03-01T09:34:24.662Z,3.20
2023-03-01T09:35:24.666Z,3.00
2023-03-01T09:36:24.637Z,3.20
2023-03-01T09:37:24.622Z,3.10
2023-03-01T09:38:25.977Z,3.60
2023-03-01T09:39:24.606Z,3.30
2023-03-01T09:40:24.580Z,3.10
2023-03-01T09:41:24.568Z,3.20
2023-03-01T09:42:24.554Z,3.10
2023-03-01T09:43:24.540Z,3.30
2023-03-01T09:44:24.527Z,3.10
2023-03-01T09:45:24.512Z,3.50
2023-03-01T09:46:24.521Z,3.20
2023-03-01T09:47:24.490Z,3.50
2023-03-01T09:48:24.479Z,3.00
2023-03-01T09:49:24.470Z,3.10
2023-03-01T09:50:24.453Z,2.80
2023-03-01T09:51:24.438Z,2.30
2023-03-01T09:52:24.467Z,2.30
2023-03-01T09:53:24.410Z,2.30
2023-03-01T09:54:24.395Z,2.40
2023-03-01T09:55:24.382Z,2.50
2023-03-01T09:56:24.370Z,2.30
2023-03-01T09:57:24.365Z,2.30
2023-03-01T09:58:24.343Z,2.40
2023-03-01T09:59:24.338Z,2.60
2023-03-01T10:00:24.358Z,2.50
2023-03-01T10:01:24.304Z,2.30
2023-03-01T10:02:24.356Z,2.70
2023-03-01T10:03:24.275Z,2.40
2023-03-01T10:04:24.294Z,2.80
2023-03-01T10:05:24.251Z,2.70
2023-03-01T10:06:34.468Z,2.80
2023-03-01T10:07:24.229Z,3.00
2023-03-01T10:08:24.215Z,3.00
2023-03-01T10:09:24.205Z,2.90
2023-03-01T10:10:24.184Z,2.90
2023-03-01T10:11:25.324Z,2.90
2023-03-01T10:12:24.164Z,3.00
2023-03-01T10:13:24.151Z,2.80
2023-03-01T10:14:24.143Z,3.10
2023-03-01T10:15:24.125Z,2.70
2023-03-01T10:16:24.115Z,2.60
2023-03-01T10:17:24.103Z,2.90
2023-03-01T10:18:24.093Z,3.00
2023-03-01T10:19:24.074Z,3.20
2023-03-01T10:20:24.067Z,3.10
2023-03-01T10:21:24.049Z,2.90
2023-03-01T10:22:24.047Z,2.70
2023-03-01T10:23:24.026Z,2.80
2023-03-01T10:24:24.012Z,2.90
2023-03-01T10:25:24.003Z,3.10
2023-03-01T10:26:23.986Z,3.10
2023-03-01T10:27:23.981Z,2.90
2023-03-01T10:28:23.966Z,3.00
2023-03-01T10:29:23.963Z,3.00
2023-03-01T10:30:23.940Z,3.00
2023-03-01T10:31:23.948Z,3.00
2023-03-01T10:32:25.178Z,2.90
2023-03-01T10:33:23.898Z,2.80
2023-03-01T10:34:23.887Z,3.20
2023-03-01T10:35:23.874Z,2.90
2023-03-01T10:36:23.865Z,3.10
2023-03-01T10:37:23.848Z,3.40
2023-03-01T10:38:23.836Z,3.10
2023-03-01T10:39:23.826Z,2.90
2023-03-01T10:40:23.812Z,3.20
2023-03-01T10:41:23.805Z,3.00
2023-03-01T10:42:23.789Z,3.20
2023-03-01T10:43:23.776Z,2.80
2023-03-01T10:44:23.761Z,3.00
2023-03-01T10:45:25.791Z,2.90
2023-03-01T10:46:23.761Z,2.70
2023-03-01T10:47:23.724Z,2.80
2023-03-01T10:48:23.718Z,2.80
2023-03-01T10:49:23.704Z,2.60
2023-03-01T10:50:23.705Z,2.30
2023-03-01T10:51:23.680Z,2.80
2023-03-01T10:52:23.665Z,2.20
2023-03-01T10:53:23.653Z,2.10
2023-03-01T10:54:23.639Z,2.30
2023-03-01T10:55:23.625Z,2.40
2023-03-01T10:56:23.617Z,2.20
2023-03-01T10:57:23.599Z,2.50
2023-03-01T10:58:23.591Z,2.20
2023-03-01T10:59:23.575Z,2.20
2023-03-01T11:00:23.568Z,2.30
2023-03-01T11:01:23.576Z,2.20
2023-03-01T11:02:25.432Z,2.20
2023-03-01T11:03:23.534Z,2.30
2023-03-01T11:04:23.559Z,2.10
2023-03-01T11:05:23.509Z,2.10
2023-03-01T11:06:23.498Z,2.40
2023-03-01T11:07:23.487Z,2.00
2023-03-01T11:08:23.465Z,2.10
2023-03-01T11:09:23.456Z,2.10
2023-03-01T11:10:23.442Z,2.10
2023-03-01T11:11:23.428Z,2.30
2023-03-01T11:12:23.420Z,2.30
2023-03-01T11:13:23.410Z,2.20
2023-03-01T11:14:27.399Z,2.20
2023-03-01T11:15:23.382Z,2.10
2023-03-01T11:16:23.389Z,1.90
2023-03-01T11:17:23.362Z,1.90
2023-03-01T11:18:30.987Z,1.90
2023-03-01T11:19:23.335Z,1.80
2023-03-01T11:20:24.715Z,2.10
2023-03-01T11:21:23.318Z,1.90
2023-03-01T11:22:23.413Z,2.00
2023-03-01T11:23:23.283Z,1.60
2023-03-01T11:24:23.275Z,1.80
2023-03-01T11:25:23.262Z,1.70
2023-03-01T11:26:23.250Z,1.70
2023-03-01T11:27:23.240Z,1.90
2023-03-01T11:28:23.225Z,1.90
2023-03-01T11:29:23.217Z,2.00
2023-03-01T11:30:23.215Z,2.00
2023-03-01T11:31:23.222Z,2.30
2023-03-01T11:32:23.389Z,2.20
2023-03-01T11:33:23.165Z,2.10
2023-03-01T11:34:23.151Z,2.10
2023-03-01T11:35:23.144Z,1.80
2023-03-01T11:36:23.172Z,1.90
2023-03-01T11:37:23.145Z,2.10
2023-03-01T11:38:23.124Z,2.10
2023-03-01T11:39:23.093Z,2.20
2023-03-01T11:40:23.086Z,2.30
2023-03-01T11:41:23.069Z,2.10
2023-03-01T11:42:23.059Z,2.10
2023-03-01T11:43:23.052Z,2.20
2023-03-01T11:44:23.034Z,2.50
2023-03-01T11:45:23.038Z,2.30
2023-03-01T11:46:23.075Z,2.20
2023-03-01T11:47:23.141Z,2.40
2023-03-01T11:48:22.989Z,2.30
2023-03-01T11:49:22.981Z,2.30
2023-03-01T11:50:22.964Z,2.40
2023-03-01T11:51:22.988Z,2.40
2023-03-01T11:52:22.941Z,2.20
2023-03-01T11:53:22.952Z,2.20
2023-03-01T11:54:22.924Z,2.20
2023-03-01T11:55:22.945Z,2.20
2023-03-01T11:56:24.017Z,2.30
2023-03-01T11:57:26.931Z,2.30
2023-03-01T11:58:22.877Z,2.30
2023-03-01T11:59:22.866Z,2.00
2023-03-01T12:00:22.847Z,2.30
2023-03-01T12:01:22.839Z,1.90
2023-03-01T12:02:22.930Z,2.30
2023-03-01T12:03:22.816Z,2.10
2023-03-01T12:04:22.895Z,2.20
2023-03-01T12:05:22.791Z,2.50
2023-03-01T12:06:22.782Z,2.30
2023-03-01T12:07:22.778Z,2.40
2023-03-01T12:08:22.762Z,2.10
2023-03-01T12:09:22.754Z,2.40
2023-03-01T12:10:22.816Z,2.30
2023-03-01T12:11:22.734Z,2.30
2023-03-01T12:12:22.730Z,2.60
2023-03-01T12:13:22.710Z,2.40
2023-03-01T12:14:22.726Z,2.30
2023-03-01T12:15:22.684Z,2.40
2023-03-01T12:16:36.336Z,2.30
2023-03-01T12:17:22.660Z,2.20
2023-03-01T12:18:22.647Z,2.50
2023-03-01T12:19:22.638Z,2.40
2023-03-01T12:20:22.641Z,2.20
2023-03-01T12:21:22.613Z,2.30
2023-03-01T12:22:22.608Z,2.40
2023-03-01T12:23:22.591Z,2.40
2023-03-01T12:24:22.580Z,2.10
2023-03-01T12:25:22.566Z,2.30
2023-03-01T12:26:22.565Z,2.40
2023-03-01T12:27:22.548Z,2.40
2023-03-01T12:28:22.530Z,2.20
2023-03-01T12:29:22.520Z,2.00
2023-03-01T12:30:22.518Z,2.20
2023-03-01T12:31:22.558Z,2.10
2023-03-01T12:32:22.640Z,2.00
2023-03-01T12:33:22.489Z,2.00
2023-03-01T12:34:22.474Z,2.00
2023-03-01T12:35:22.453Z,2.10
2023-03-01T12:36:22.508Z,2.20
2023-03-01T12:37:22.455Z,2.00
2023-03-01T12:38:22.431Z,1.90
2023-03-01T12:39:22.413Z,1.90
2023-03-01T12:40:22.404Z,1.90
2023-03-01T12:41:22.397Z,1.90
2023-03-01T12:42:22.386Z,1.70
2023-03-01T12:43:22.367Z,1.80
2023-03-01T12:44:22.362Z,1.90
2023-03-01T12:45:22.341Z,1.90
2023-03-01T12:46:22.333Z,1.80
2023-03-01T12:47:22.330Z,1.90
2023-03-01T12:48:22.307Z,1.90
2023-03-01T12:49:22.304Z,1.60
2023-03-01T12:50:22.290Z,1.80
2023-03-01T12:51:22.281Z,1.90
2023-03-01T12:52:22.274Z,1.90
2023-03-01T12:53:22.255Z,1.90
2023-03-01T12:54:22.257Z,1.90
2023-03-01T12:55:22.236Z,2.00
2023-03-01T12:56:22.235Z,1.80
2023-03-01T12:57:22.214Z,1.90
2023-03-01T12:58:22.223Z,2.10
2023-03-01T12:59:22.191Z,1.90
2023-03-01T13:00:22.186Z,1.80
2023-03-01T13:01:22.203Z,1.90